createdAt,value
2022-10-22T00:00:00.668Z,8.40
2022-10-22T00:03:02.315Z,8.04
2022-10-22T00:06:04.233Z,8.17
2022-10-22T00:09:06.032Z,8.29
2022-10-22T00:12:08.047Z,8.12
2022-10-22T00:15:11.745Z,8.25
2022-10-22T00:18:13.292Z,8.29
2022-10-22T00:21:15.225Z,8.41
2022-10-22T00:24:17.027Z,8.40
2022-10-22T00:27:18.589Z,8.15
2022-10-22T00:30:20.458Z,8.24
2022-10-22T00:33:22.014Z,7.98
2022-10-22T00:36:23.539Z,7.68
2022-10-22T00:39:27.203Z,8.18
2022-10-22T00:42:32.273Z,7.72
2022-10-22T00:45:33.874Z,7.85
2022-10-22T00:48:35.523Z,7.79
2022-10-22T00:51:37.433Z,7.55
2022-10-22T00:54:39.880Z,7.79
2022-10-22T00:57:42.081Z,7.60
2022-10-22T01:00:44.268Z,7.37
2022-10-22T01:03:45.847Z,7.44
2022-10-22T01:06:48.229Z,7.58
2022-10-22T01:13:24.767Z,7.41
2022-10-22T01:17:02.230Z,7.43
2022-10-22T01:20:15.768Z,7.63
2022-10-22T01:23:49.092Z,7.58
2022-10-22T01:27:19.616Z,7.44
2022-10-22T01:30:22.181Z,7.54
2022-10-22T01:33:26.184Z,7.48
2022-10-22T01:36:31.762Z,7.50
2022-10-22T01:39:34.997Z,7.37
2022-10-22T01:42:36.561Z,7.47
2022-10-22T01:45:46.718Z,7.48
2022-10-22T01:49:13.026Z,7.43
2022-10-22T01:52:51.649Z,7.57
2022-10-22T01:56:21.688Z,7.60
2022-10-22T01:59:42.107Z,7.66
2022-10-22T02:03:12.299Z,7.55
2022-10-22T02:06:21.528Z,7.58
2022-10-22T02:09:26.046Z,7.55
2022-10-22T02:12:31.116Z,7.57
2022-10-22T02:15:34.429Z,7.27
2022-10-22T02:18:40.133Z,7.11
2022-10-22T02:21:42.041Z,6.89
2022-10-22T02:24:43.854Z,7.09
2022-10-22T02:27:49.567Z,7.04
2022-10-22T02:31:01.205Z,7.18
2022-10-22T02:34:10.334Z,7.04
2022-10-22T02:37:13.511Z,7.03
2022-10-22T02:40:15.706Z,7.15
2022-10-22T02:43:18.710Z,7.22
2022-10-22T02:46:21.028Z,7.27
2022-10-22T02:49:22.731Z,7.20
2022-10-22T02:52:24.673Z,6.91
2022-10-22T02:55:26.419Z,7.09
2022-10-22T02:58:28.025Z,7.19
2022-10-22T03:01:29.792Z,7.22
2022-10-22T03:04:31.384Z,7.18
2022-10-22T03:07:34.424Z,7.35
2022-10-22T03:10:36.005Z,7.44
2022-10-22T03:13:37.902Z,7.56
2022-10-22T03:16:39.748Z,7.62
2022-10-22T03:19:42.131Z,7.67
2022-10-22T03:22:44.669Z,7.56
2022-10-22T03:25:48.259Z,7.56
2022-10-22T03:28:50.254Z,7.49
2022-10-22T03:31:52.834Z,7.49
2022-10-22T03:34:54.771Z,7.43
2022-10-22T03:37:56.380Z,7.44
2022-10-22T03:40:58.573Z,7.35
2022-10-22T03:44:02.657Z,7.39
2022-10-22T03:47:04.981Z,7.45
2022-10-22T03:50:07.416Z,7.45
2022-10-22T03:53:10.823Z,7.39
2022-10-22T03:56:13.702Z,7.42
2022-10-22T03:59:15.511Z,7.49
2022-10-22T04:02:17.320Z,7.55
2022-10-22T04:05:18.873Z,7.44
2022-10-22T04:08:20.394Z,7.42
2022-10-22T04:11:22.317Z,6.85
2022-10-22T04:14:23.974Z,7.34
2022-10-22T04:17:25.590Z,7.15
2022-10-22T04:20:27.519Z,7.25
2022-10-22T04:23:29.057Z,7.06
2022-10-22T04:26:30.862Z,7.05
2022-10-22T04:29:32.444Z,7.13
2022-10-22T04:32:34.319Z,6.94
2022-10-22T04:35:39.698Z,6.93
2022-10-22T04:38:42.689Z,6.87
2022-10-22T04:41:44.234Z,6.70
2022-10-22T04:44:46.431Z,6.78
2022-10-22T04:47:48.034Z,6.75
2022-10-22T04:50:49.911Z,6.50
2022-10-22T04:53:52.409Z,6.51
2022-10-22T04:56:54.004Z,6.63
2022-10-22T04:59:55.560Z,6.69
2022-10-22T05:02:57.495Z,6.74
2022-10-22T05:06:01.801Z,6.87
2022-10-22T05:09:14.295Z,6.67
2022-10-22T05:12:16.006Z,6.67
2022-10-22T05:15:17.939Z,6.72
2022-10-22T05:18:21.884Z,6.71
2022-10-22T05:21:24.555Z,6.78
2022-10-22T05:24:27.312Z,6.81
2022-10-22T05:27:29.197Z,6.84
2022-10-22T05:30:31.054Z,6.90
2022-10-22T05:33:33.924Z,6.72
2022-10-22T05:36:35.529Z,6.61
2022-10-22T05:39:40.082Z,6.63
2022-10-22T05:42:42.211Z,6.92
2022-10-22T05:45:44.010Z,7.13
2022-10-22T05:48:53.152Z,7.37
2022-10-22T05:51:54.791Z,7.42
2022-10-22T05:54:56.371Z,7.43
2022-10-22T05:57:58.091Z,7.32
2022-10-22T06:01:17.696Z,7.58
2022-10-22T06:04:19.306Z,7.61
2022-10-22T06:07:21.154Z,7.66
2022-10-22T06:10:23.142Z,7.56
2022-10-22T06:13:25.248Z,7.80
2022-10-22T06:16:29.944Z,8.00
2022-10-22T06:19:32.075Z,8.08
2022-10-22T06:22:34.020Z,8.22
2022-10-22T06:25:35.567Z,8.01
2022-10-22T06:28:37.512Z,8.43
2022-10-22T06:31:39.101Z,8.43
2022-10-22T06:34:40.649Z,8.35
2022-10-22T06:37:42.764Z,8.36
2022-10-22T06:40:45.292Z,8.57
2022-10-22T06:43:47.106Z,8.63
2022-10-22T06:46:53.431Z,8.90
2022-10-22T06:49:55.002Z,8.85
2022-10-22T06:52:58.029Z,8.98
2022-10-22T06:56:04.579Z,9.22
2022-10-22T06:59:06.185Z,9.35
2022-10-22T07:02:09.759Z,9.39
2022-10-22T07:05:11.643Z,9.50
2022-10-22T07:08:13.286Z,9.63
2022-10-22T07:11:19.121Z,9.87
2022-10-22T07:14:20.677Z,10.10
2022-10-22T07:17:22.613Z,10.98
2022-10-22T07:20:24.223Z,11.94
2022-10-22T07:23:26.440Z,13.24
2022-10-22T07:26:31.101Z,13.80
2022-10-22T07:29:33.266Z,14.48
2022-10-22T07:32:34.886Z,15.13
2022-10-22T07:35:38.063Z,15.05
2022-10-22T07:38:39.697Z,14.95
2022-10-22T07:41:41.287Z,14.63
2022-10-22T07:44:43.249Z,14.39
2022-10-22T07:47:46.962Z,14.24
2022-10-22T07:50:52.520Z,13.93
2022-10-22T07:53:54.284Z,13.78
2022-10-22T07:56:56.006Z,13.28
2022-10-22T07:59:58.356Z,13.03
2022-10-22T08:03:00.399Z,12.60
2022-10-22T08:06:02.825Z,13.19
2022-10-22T08:09:04.656Z,13.03
2022-10-22T08:12:07.322Z,12.92
2022-10-22T08:15:09.791Z,13.05
2022-10-22T08:18:11.654Z,13.20
2022-10-22T08:21:13.451Z,13.53
2022-10-22T08:24:15.599Z,13.86
2022-10-22T08:27:17.240Z,15.58
2022-10-22T08:30:19.568Z,18.93
2022-10-22T08:33:21.778Z,21.72
2022-10-22T08:36:23.685Z,23.48
2022-10-22T08:39:25.582Z,24.68
2022-10-22T08:42:44.337Z,26.07
2022-10-22T08:45:56.452Z,26.72
2022-10-22T08:49:01.830Z,26.69
2022-10-22T08:52:03.979Z,26.59
2022-10-22T08:55:09.295Z,27.03
2022-10-22T08:58:42.245Z,27.43
2022-10-22T09:01:47.141Z,27.46
2022-10-22T09:05:02.512Z,28.65
2022-10-22T09:08:05.773Z,28.83
2022-10-22T09:11:27.106Z,29.81
2022-10-22T09:14:30.217Z,28.30
2022-10-22T09:17:41.879Z,29.10
2022-10-22T09:20:51.115Z,29.35
2022-10-22T09:23:58.525Z,28.32
2022-10-22T09:27:01.195Z,26.31
2022-10-22T09:30:02.874Z,25.59
2022-10-22T09:33:07.374Z,24.21
2022-10-22T09:36:15.609Z,22.20
2022-10-22T09:39:27.088Z,20.30
2022-10-22T09:42:28.723Z,18.86
2022-10-22T09:45:32.248Z,19.13
2022-10-22T09:48:39.373Z,19.26
2022-10-22T09:51:46.762Z,19.57
2022-10-22T09:54:53.142Z,19.41
2022-10-22T09:57:58.050Z,18.44
2022-10-22T10:01:01.178Z,18.74
2022-10-22T10:04:10.566Z,18.25
2022-10-22T10:07:18.578Z,18.34
2022-10-22T10:10:28.023Z,18.54
2022-10-22T10:13:51.666Z,18.62
2022-10-22T10:17:02.919Z,19.05
2022-10-22T10:20:45.667Z,18.52
2022-10-22T10:24:17.871Z,18.69
2022-10-22T10:27:31.419Z,18.46
2022-10-22T10:30:36.599Z,18.84
2022-10-22T10:34:10.261Z,18.66
2022-10-22T10:37:32.580Z,18.43
2022-10-22T10:41:12.225Z,18.01
2022-10-22T10:44:42.127Z,18.08
2022-10-22T10:47:55.218Z,17.96
2022-10-22T10:51:33.637Z,17.57
2022-10-22T10:55:04.234Z,17.64
2022-10-22T10:58:15.283Z,17.59
2022-10-22T11:01:59.925Z,17.50
2022-10-22T11:05:30.411Z,17.37
2022-10-22T11:08:36.803Z,17.44
2022-10-22T11:11:48.126Z,17.73
2022-10-22T11:15:23.914Z,18.11
2022-10-22T11:18:48.046Z,18.41
2022-10-22T11:22:26.511Z,18.37
2022-10-22T11:25:34.883Z,18.30
2022-10-22T11:28:48.100Z,18.21
2022-10-22T11:31:52.853Z,18.20
2022-10-22T11:35:04.944Z,18.37
2022-10-22T11:38:10.154Z,18.35
2022-10-22T11:41:23.410Z,18.48
2022-10-22T11:44:26.028Z,18.50
2022-10-22T11:47:50.215Z,18.51
2022-10-22T11:51:01.891Z,18.56
2022-10-22T11:54:31.555Z,18.54
2022-10-22T11:57:38.386Z,18.35
2022-10-22T12:00:48.113Z,18.48
2022-10-22T12:04:14.176Z,18.62
2022-10-22T12:07:51.769Z,18.67
2022-10-22T12:10:59.530Z,18.75
2022-10-22T12:14:24.659Z,18.59
2022-10-22T12:17:29.029Z,18.58
2022-10-22T12:20:31.477Z,18.35
2022-10-22T12:23:35.718Z,18.49
2022-10-22T12:26:37.562Z,18.44
2022-10-22T12:29:39.085Z,18.31
2022-10-22T12:32:41.462Z,18.27
2022-10-22T12:35:45.408Z,18.21
2022-10-22T12:38:47.623Z,18.23
2022-10-22T12:41:49.488Z,18.14
2022-10-22T12:44:56.569Z,17.90
2022-10-22T12:47:59.596Z,18.00
2022-10-22T12:51:04.731Z,17.80
2022-10-22T12:54:26.826Z,17.92
2022-10-22T12:57:28.411Z,17.94
2022-10-22T13:00:35.101Z,17.77
2022-10-22T13:03:41.947Z,17.63
2022-10-22T13:06:50.784Z,17.37
2022-10-22T13:09:59.874Z,17.06
2022-10-22T13:13:08.191Z,17.17
2022-10-22T13:16:28.107Z,17.25
2022-10-22T13:19:38.416Z,17.01
2022-10-22T13:22:52.210Z,17.05
2022-10-22T13:26:03.433Z,17.01
2022-10-22T13:29:11.915Z,16.96
2022-10-22T13:32:29.934Z,16.94
2022-10-22T13:35:34.683Z,16.79
2022-10-22T13:38:36.222Z,16.88
2022-10-22T13:44:41.786Z,16.84
2022-10-22T13:47:48.745Z,16.72
2022-10-22T13:50:51.319Z,16.74
2022-10-22T13:53:53.624Z,16.63
2022-10-22T13:56:55.405Z,16.55
2022-10-22T13:59:57.287Z,16.49
2022-10-22T14:03:00.056Z,16.40
2022-10-22T14:06:01.844Z,16.42
2022-10-22T14:09:11.403Z,16.31
2022-10-22T14:12:16.721Z,16.14
2022-10-22T14:15:21.006Z,16.04
2022-10-22T14:18:29.034Z,15.98
2022-10-22T14:21:36.162Z,15.91
2022-10-22T14:24:37.891Z,15.74
2022-10-22T14:27:39.742Z,15.69
2022-10-22T14:30:41.774Z,15.65
2022-10-22T14:33:43.681Z,15.69
2022-10-22T14:36:45.673Z,15.52
2022-10-22T14:39:51.982Z,15.47
2022-10-22T14:42:54.017Z,15.42
2022-10-22T14:45:56.372Z,15.39
2022-10-22T14:48:58.007Z,15.26
2022-10-22T14:51:59.992Z,15.02
2022-10-22T14:55:01.735Z,14.98
2022-10-22T14:58:03.888Z,14.85
2022-10-22T15:01:06.023Z,14.87
2022-10-22T15:04:08.690Z,14.87
2022-10-22T15:07:10.448Z,14.87
2022-10-22T15:10:12.218Z,14.88
2022-10-22T15:13:14.551Z,14.75
2022-10-22T15:16:17.079Z,14.69
2022-10-22T15:19:18.909Z,14.67
2022-10-22T15:22:20.570Z,14.73
2022-10-22T15:25:23.652Z,14.81
2022-10-22T15:28:25.841Z,14.64
2022-10-22T15:31:48.574Z,14.55
2022-10-22T15:34:53.183Z,14.55
2022-10-22T15:37:54.857Z,14.52
2022-10-22T15:41:07.271Z,14.50
2022-10-22T15:44:17.795Z,14.54
2022-10-22T15:47:19.854Z,14.50
2022-10-22T15:50:21.543Z,14.34
2022-10-22T15:53:23.313Z,14.17
2022-10-22T15:56:28.100Z,14.14
2022-10-22T15:59:30.626Z,14.00
2022-10-22T16:02:32.561Z,13.96
2022-10-22T16:05:34.519Z,13.99
2022-10-22T16:08:36.993Z,13.90
2022-10-22T16:11:39.928Z,13.83
2022-10-22T16:14:42.049Z,13.73
2022-10-22T16:17:44.211Z,13.74
2022-10-22T16:20:46.602Z,13.55
2022-10-22T16:23:48.856Z,13.56
2022-10-22T16:26:53.195Z,13.36
2022-10-22T16:29:55.589Z,13.32
2022-10-22T16:32:58.786Z,13.28
2022-10-22T16:36:02.172Z,13.27
2022-10-22T16:39:05.288Z,13.04
2022-10-22T16:42:08.016Z,13.12
2022-10-22T16:45:10.524Z,12.99
2022-10-22T16:48:13.678Z,12.90
2022-10-22T16:51:17.950Z,12.90
2022-10-22T16:54:21.927Z,12.72
2022-10-22T16:57:25.518Z,12.79
2022-10-22T17:00:27.616Z,12.77
2022-10-22T17:03:29.752Z,12.82
2022-10-22T17:06:33.136Z,12.73
2022-10-22T17:09:38.459Z,12.79
2022-10-22T17:12:40.823Z,12.76
2022-10-22T17:15:44.381Z,12.71
2022-10-22T17:18:47.895Z,12.78
2022-10-22T17:22:06.180Z,12.61
2022-10-22T17:25:13.227Z,12.40
2022-10-22T17:28:16.174Z,12.34
2022-10-22T17:31:21.532Z,12.33
2022-10-22T17:34:23.930Z,12.29
2022-10-22T17:37:26.122Z,12.22
2022-10-22T17:40:28.483Z,12.01
2022-10-22T17:43:33.004Z,12.01
2022-10-22T17:46:37.842Z,11.84
2022-10-22T17:49:41.151Z,11.84
2022-10-22T17:52:43.508Z,11.86
2022-10-22T17:55:45.759Z,11.74
2022-10-22T17:58:47.993Z,11.84
2022-10-22T18:01:50.476Z,11.81
2022-10-22T18:04:56.200Z,11.80
2022-10-22T18:08:00.795Z,11.85
2022-10-22T18:11:08.232Z,11.77
2022-10-22T18:14:10.557Z,11.76
2022-10-22T18:17:18.654Z,11.84
2022-10-22T18:20:21.204Z,11.86
2022-10-22T18:23:23.610Z,11.76
2022-10-22T18:26:27.031Z,11.85
2022-10-22T18:29:29.639Z,11.76
2022-10-22T18:32:34.234Z,11.75
2022-10-22T18:35:37.638Z,11.76
2022-10-22T18:38:40.029Z,11.74
2022-10-22T18:41:43.617Z,11.75
2022-10-22T18:44:45.865Z,11.78
2022-10-22T18:47:48.897Z,11.62
2022-10-22T18:51:00.538Z,11.59
2022-10-22T18:54:05.764Z,11.63
2022-10-22T18:57:18.870Z,11.63
2022-10-22T19:00:22.132Z,11.71
2022-10-22T19:03:24.323Z,11.60
2022-10-22T19:06:34.457Z,11.66
2022-10-22T19:09:40.263Z,11.57
2022-10-22T19:12:42.282Z,11.57
2022-10-22T19:15:44.484Z,11.62
2022-10-22T19:18:46.682Z,11.53
2022-10-22T19:21:49.385Z,11.60
2022-10-22T19:24:51.828Z,11.62
2022-10-22T19:27:54.650Z,11.64
2022-10-22T19:30:57.763Z,11.55
2022-10-22T19:34:02.232Z,11.50
2022-10-22T19:37:04.371Z,11.64
2022-10-22T19:40:08.958Z,11.59
2022-10-22T19:43:12.315Z,11.60
2022-10-22T19:46:16.033Z,11.68
2022-10-22T19:49:22.157Z,11.60
2022-10-22T19:52:25.427Z,11.52
2022-10-22T19:55:28.272Z,11.55
2022-10-22T19:58:32.432Z,11.58
2022-10-22T20:01:35.605Z,11.47
2022-10-22T20:04:37.676Z,11.59
2022-10-22T20:07:40.892Z,11.40
2022-10-22T20:10:43.304Z,11.38
2022-10-22T20:13:49.566Z,11.26
2022-10-22T20:16:54.449Z,11.30
2022-10-22T20:19:56.807Z,11.21
2022-10-22T20:22:58.912Z,11.16
2022-10-22T20:26:01.099Z,11.06
2022-10-22T20:29:03.320Z,10.91
2022-10-22T20:32:08.091Z,10.98
2022-10-22T20:35:11.494Z,11.04
2022-10-22T20:38:15.904Z,10.81
2022-10-22T20:41:23.841Z,10.78
2022-10-22T20:44:26.053Z,10.68
2022-10-22T20:47:39.166Z,10.65
2022-10-22T20:50:49.949Z,10.66
2022-10-22T20:53:52.001Z,10.69
2022-10-22T20:56:55.353Z,10.58
2022-10-22T20:59:57.832Z,10.46
2022-10-22T21:02:59.507Z,10.48
2022-10-22T21:06:01.499Z,10.48
2022-10-22T21:09:03.898Z,10.53
2022-10-22T21:12:06.501Z,10.50
2022-10-22T21:15:11.767Z,10.43
2022-10-22T21:18:14.879Z,10.45
2022-10-22T21:21:20.275Z,10.39
2022-10-22T21:24:24.786Z,10.34
2022-10-22T21:27:26.762Z,10.31
2022-10-22T21:30:28.319Z,10.31
2022-10-22T21:33:30.500Z,10.35
2022-10-22T21:36:32.318Z,10.34
2022-10-22T21:39:39.656Z,10.32
2022-10-22T21:42:43.648Z,10.31
2022-10-22T21:45:45.561Z,10.30
2022-10-22T21:48:47.997Z,10.26
2022-10-22T21:51:49.578Z,10.20
2022-10-22T21:54:51.336Z,10.20
2022-10-22T21:57:52.932Z,10.18
2022-10-22T22:00:57.140Z,10.19
2022-10-22T22:03:59.552Z,10.12
2022-10-22T22:07:01.137Z,10.19
2022-10-22T22:10:03.366Z,10.17
2022-10-22T22:13:05.344Z,10.15
2022-10-22T22:16:13.656Z,10.14
2022-10-22T22:19:15.279Z,10.16
2022-10-22T22:22:16.835Z,10.04
2022-10-22T22:25:18.727Z,10.07
2022-10-22T22:28:20.288Z,10.03
2022-10-22T22:31:27.386Z,10.15
2022-10-22T22:34:28.939Z,10.12
2022-10-22T22:37:30.953Z,10.03
2022-10-22T22:40:33.831Z,10.03
2022-10-22T22:43:37.696Z,9.99
2022-10-22T22:46:39.852Z,9.96
2022-10-22T22:49:41.420Z,10.10
2022-10-22T22:52:43.269Z,10.13
2022-10-22T22:55:45.201Z,9.99
2022-10-22T22:58:47.286Z,9.96
2022-10-22T23:01:50.248Z,10.00
2022-10-22T23:04:52.132Z,9.89
2022-10-22T23:07:53.684Z,9.89
2022-10-22T23:10:55.455Z,9.95
2022-10-22T23:13:59.685Z,9.92
2022-10-22T23:17:01.272Z,9.96
2022-10-22T23:20:03.584Z,10.00
2022-10-22T23:23:06.249Z,10.14
2022-10-22T23:26:11.098Z,10.05
2022-10-22T23:29:15.644Z,10.02
2022-10-22T23:32:17.277Z,9.95
2022-10-22T23:35:19.218Z,9.84
2022-10-22T23:38:20.852Z,9.95
2022-10-22T23:41:22.981Z,9.94
2022-10-22T23:44:25.240Z,9.89
2022-10-22T23:47:27.130Z,9.83
2022-10-22T23:50:28.801Z,9.84
2022-10-22T23:53:30.617Z,9.84
2022-10-22T23:56:33.591Z,9.79
2022-10-22T23:59:35.135Z,9.80
